sensor_id;sensor_type;location;lat;lon;timestamp;P1;durP1;ratioP1;P2;durP2;ratioP2
11054;SDS011;5580;50.106;8.702;2024-02-26T00:01:48;6.40;;;3.83;;
11054;SDS011;5580;50.106;8.702;2024-02-26T00:04:14;6.30;;;4.00;;
11054;SDS011;5580;50.106;8.702;2024-02-26T00:06:39;4.70;;;3.80;;
11054;SDS011;5580;50.106;8.702;2024-02-26T00:09:08;6.27;;;4.03;;
11054;SDS011;5580;50.106;8.702;2024-02-26T00:11:37;5.70;;;3.83;;
11054;SDS011;5580;50.106;8.702;2024-02-26T00:14:03;4.90;;;3.80;;
11054;SDS011;5580;50.106;8.702;2024-02-26T00:16:29;4.67;;;3.73;;
11054;SDS011;5580;50.106;8.702;2024-02-26T00:18:55;4.97;;;3.77;;
11054;SDS011;5580;50.106;8.702;2024-02-26T00:21:20;6.20;;;4.00;;
11054;SDS011;5580;50.106;8.702;2024-02-26T00:23:46;5.20;;;3.97;;
11054;SDS011;5580;50.106;8.702;2024-02-26T00:26:11;5.33;;;3.90;;
11054;SDS011;5580;50.106;8.702;2024-02-26T00:28:37;5.17;;;3.80;;
11054;SDS011;5580;50.106;8.702;2024-02-26T00:31:03;4.83;;;3.60;;
11054;SDS011;5580;50.106;8.702;2024-02-26T00:33:28;8.03;;;3.87;;
11054;SDS011;5580;50.106;8.702;2024-02-26T00:35:54;5.50;;;3.67;;
11054;SDS011;5580;50.106;8.702;2024-02-26T00:38:20;6.33;;;3.73;;
11054;SDS011;5580;50.106;8.702;2024-02-26T00:40:46;3.93;;;3.50;;
11054;SDS011;5580;50.106;8.702;2024-02-26T00:43:11;6.43;;;3.80;;
11054;SDS011;5580;50.106;8.702;2024-02-26T00:45:37;6.07;;;3.60;;
11054;SDS011;5580;50.106;8.702;2024-02-26T00:48:03;5.90;;;3.80;;
11054;SDS011;5580;50.106;8.702;2024-02-26T00:50:32;7.07;;;3.80;;
11054;SDS011;5580;50.106;8.702;2024-02-26T00:52:58;5.70;;;4.20;;
11054;SDS011;5580;50.106;8.702;2024-02-26T00:55:24;6.10;;;3.90;;
11054;SDS011;5580;50.106;8.702;2024-02-26T00:57:50;7.53;;;4.13;;
11054;SDS011;5580;50.106;8.702;2024-02-26T01:00:15;5.40;;;4.17;;
11054;SDS011;5580;50.106;8.702;2024-02-26T01:02:41;6.37;;;3.93;;
11054;SDS011;5580;50.106;8.702;2024-02-26T01:05:07;5.27;;;3.80;;
11054;SDS011;5580;50.106;8.702;2024-02-26T01:07:36;5.90;;;3.83;;
11054;SDS011;5580;50.106;8.702;2024-02-26T01:10:02;7.33;;;4.30;;
11054;SDS011;5580;50.106;8.702;2024-02-26T01:12:28;7.57;;;4.10;;
11054;SDS011;5580;50.106;8.702;2024-02-26T01:14:54;5.10;;;3.53;;
11054;SDS011;5580;50.106;8.702;2024-02-26T01:17:19;4.00;;;3.60;;
11054;SDS011;5580;50.106;8.702;2024-02-26T01:19:45;3.97;;;3.57;;
11054;SDS011;5580;50.106;8.702;2024-02-26T01:22:10;3.97;;;3.43;;
11054;SDS011;5580;50.106;8.702;2024-02-26T01:24:36;5.90;;;3.53;;
11054;SDS011;5580;50.106;8.702;2024-02-26T01:27:01;5.30;;;3.90;;
11054;SDS011;5580;50.106;8.702;2024-02-26T01:29:27;3.57;;;3.27;;
11054;SDS011;5580;50.106;8.702;2024-02-26T01:31:53;5.00;;;3.73;;
11054;SDS011;5580;50.106;8.702;2024-02-26T01:34:19;4.47;;;3.30;;
11054;SDS011;5580;50.106;8.702;2024-02-26T01:36:44;4.13;;;3.40;;
11054;SDS011;5580;50.106;8.702;2024-02-26T01:39:10;4.53;;;3.60;;
11054;SDS011;5580;50.106;8.702;2024-02-26T01:41:37;4.40;;;3.70;;
11054;SDS011;5580;50.106;8.702;2024-02-26T01:44:03;5.73;;;3.97;;
11054;SDS011;5580;50.106;8.702;2024-02-26T01:46:29;4.60;;;3.70;;
11054;SDS011;5580;50.106;8.702;2024-02-26T01:48:56;5.13;;;3.90;;
11054;SDS011;5580;50.106;8.702;2024-02-26T01:51:22;4.33;;;3.90;;
11054;SDS011;5580;50.106;8.702;2024-02-26T01:53:48;5.90;;;3.90;;
11054;SDS011;5580;50.106;8.702;2024-02-26T01:56:14;8.23;;;4.00;;
11054;SDS011;5580;50.106;8.702;2024-02-26T01:58:42;5.17;;;3.80;;
11054;SDS011;5580;50.106;8.702;2024-02-26T02:01:08;5.67;;;3.90;;
11054;SDS011;5580;50.106;8.702;2024-02-26T02:03:34;5.93;;;4.00;;
11054;SDS011;5580;50.106;8.702;2024-02-26T02:06:01;5.27;;;4.00;;
11054;SDS011;5580;50.106;8.702;2024-02-26T02:08:28;5.17;;;3.83;;
11054;SDS011;5580;50.106;8.702;2024-02-26T02:10:54;5.87;;;4.67;;
11054;SDS011;5580;50.106;8.702;2024-02-26T02:13:19;6.03;;;4.10;;
11054;SDS011;5580;50.106;8.702;2024-02-26T02:15:45;4.77;;;3.80;;
11054;SDS011;5580;50.106;8.702;2024-02-26T02:18:11;5.50;;;4.10;;
11054;SDS011;5580;50.106;8.702;2024-02-26T02:20:36;5.80;;;3.97;;
11054;SDS011;5580;50.106;8.702;2024-02-26T02:23:02;6.10;;;4.00;;
11054;SDS011;5580;50.106;8.702;2024-02-26T02:25:28;5.90;;;3.80;;
11054;SDS011;5580;50.106;8.702;2024-02-26T02:27:54;6.07;;;4.13;;
11054;SDS011;5580;50.106;8.702;2024-02-26T02:30:21;6.20;;;4.13;;
11054;SDS011;5580;50.106;8.702;2024-02-26T02:32:49;6.27;;;3.93;;
11054;SDS011;5580;50.106;8.702;2024-02-26T02:35:14;5.53;;;3.90;;
11054;SDS011;5580;50.106;8.702;2024-02-26T02:37:40;7.17;;;3.80;;
11054;SDS011;5580;50.106;8.702;2024-02-26T02:40:06;4.77;;;3.73;;
11054;SDS011;5580;50.106;8.702;2024-02-26T02:42:32;4.73;;;3.83;;
11054;SDS011;5580;50.106;8.702;2024-02-26T02:44:58;5.37;;;4.07;;
11054;SDS011;5580;50.106;8.702;2024-02-26T02:47:23;6.63;;;3.90;;
11054;SDS011;5580;50.106;8.702;2024-02-26T02:49:49;7.07;;;3.93;;
11054;SDS011;5580;50.106;8.702;2024-02-26T02:52:14;5.60;;;3.90;;
11054;SDS011;5580;50.106;8.702;2024-02-26T02:54:40;5.73;;;3.97;;
11054;SDS011;5580;50.106;8.702;2024-02-26T02:57:08;5.13;;;3.87;;
11054;SDS011;5580;50.106;8.702;2024-02-26T02:59:34;6.17;;;3.83;;
11054;SDS011;5580;50.106;8.702;2024-02-26T03:02:00;8.07;;;4.17;;
11054;SDS011;5580;50.106;8.702;2024-02-26T03:04:25;6.10;;;4.00;;
11054;SDS011;5580;50.106;8.702;2024-02-26T03:06:51;5.97;;;3.90;;
11054;SDS011;5580;50.106;8.702;2024-02-26T03:09:16;6.20;;;4.20;;
11054;SDS011;5580;50.106;8.702;2024-02-26T03:11:42;6.57;;;4.33;;
11054;SDS011;5580;50.106;8.702;2024-02-26T03:14:08;6.13;;;4.20;;
11054;SDS011;5580;50.106;8.702;2024-02-26T03:16:34;5.30;;;4.27;;
11054;SDS011;5580;50.106;8.702;2024-02-26T03:19:00;5.80;;;4.00;;
11054;SDS011;5580;50.106;8.702;2024-02-26T03:21:26;7.10;;;4.27;;
11054;SDS011;5580;50.106;8.702;2024-02-26T03:23:52;6.63;;;4.20;;
11054;SDS011;5580;50.106;8.702;2024-02-26T03:26:18;5.70;;;4.23;;
11054;SDS011;5580;50.106;8.702;2024-02-26T03:28:44;5.50;;;4.07;;
11054;SDS011;5580;50.106;8.702;2024-02-26T03:31:09;6.23;;;4.00;;
11054;SDS011;5580;50.106;8.702;2024-02-26T03:33:35;6.83;;;4.03;;
11054;SDS011;5580;50.106;8.702;2024-02-26T03:36:01;7.23;;;4.37;;
11054;SDS011;5580;50.106;8.702;2024-02-26T03:38:28;6.07;;;4.33;;
11054;SDS011;5580;50.106;8.702;2024-02-26T03:40:54;7.23;;;4.10;;
11054;SDS011;5580;50.106;8.702;2024-02-26T03:43:19;6.33;;;4.20;;
11054;SDS011;5580;50.106;8.702;2024-02-26T03:45:45;6.20;;;4.30;;
11054;SDS011;5580;50.106;8.702;2024-02-26T03:48:10;7.47;;;4.70;;
11054;SDS011;5580;50.106;8.702;2024-02-26T03:50:36;5.53;;;4.37;;
11054;SDS011;5580;50.106;8.702;2024-02-26T03:53:01;7.50;;;4.27;;
11054;SDS011;5580;50.106;8.702;2024-02-26T03:55:27;6.00;;;4.10;;
11054;SDS011;5580;50.106;8.702;2024-02-26T03:57:53;8.57;;;4.40;;
11054;SDS011;5580;50.106;8.702;2024-02-26T04:00:19;6.43;;;4.63;;
11054;SDS011;5580;50.106;8.702;2024-02-26T04:02:46;5.20;;;4.20;;
11054;SDS011;5580;50.106;8.702;2024-02-26T04:05:12;8.63;;;4.77;;
11054;SDS011;5580;50.106;8.702;2024-02-26T04:07:38;6.60;;;4.43;;
11054;SDS011;5580;50.106;8.702;2024-02-26T04:10:08;6.87;;;4.40;;
11054;SDS011;5580;50.106;8.702;2024-02-26T04:12:40;7.57;;;4.50;;
11054;SDS011;5580;50.106;8.702;2024-02-26T04:15:07;6.70;;;4.67;;
11054;SDS011;5580;50.106;8.702;2024-02-26T04:17:34;6.50;;;4.70;;
11054;SDS011;5580;50.106;8.702;2024-02-26T04:20:00;6.13;;;4.57;;
11054;SDS011;5580;50.106;8.702;2024-02-26T04:22:25;8.13;;;4.60;;
11054;SDS011;5580;50.106;8.702;2024-02-26T04:24:51;10.37;;;4.90;;
11054;SDS011;5580;50.106;8.702;2024-02-26T04:27:17;9.37;;;4.83;;
11054;SDS011;5580;50.106;8.702;2024-02-26T04:29:42;9.53;;;5.10;;
11054;SDS011;5580;50.106;8.702;2024-02-26T04:32:08;7.83;;;4.40;;
11054;SDS011;5580;50.106;8.702;2024-02-26T04:34:34;11.17;;;4.90;;
11054;SDS011;5580;50.106;8.702;2024-02-26T04:36:59;8.47;;;4.90;;
11054;SDS011;5580;50.106;8.702;2024-02-26T04:39:25;11.30;;;4.77;;
11054;SDS011;5580;50.106;8.702;2024-02-26T04:41:51;7.80;;;4.40;;
11054;SDS011;5580;50.106;8.702;2024-02-26T04:44:16;8.10;;;4.70;;
11054;SDS011;5580;50.106;8.702;2024-02-26T04:46:42;7.33;;;4.77;;
11054;SDS011;5580;50.106;8.702;2024-02-26T04:49:08;6.43;;;4.80;;
11054;SDS011;5580;50.106;8.702;2024-02-26T04:51:34;7.10;;;4.60;;
11054;SDS011;5580;50.106;8.702;2024-02-26T04:54:00;7.90;;;4.50;;
11054;SDS011;5580;50.106;8.702;2024-02-26T04:56:25;8.50;;;4.83;;
11054;SDS011;5580;50.106;8.702;2024-02-26T04:58:51;8.40;;;4.90;;
11054;SDS011;5580;50.106;8.702;2024-02-26T05:01:16;8.63;;;5.10;;
11054;SDS011;5580;50.106;8.702;2024-02-26T05:03:43;8.33;;;4.97;;
11054;SDS011;5580;50.106;8.702;2024-02-26T05:06:09;7.93;;;4.70;;
11054;SDS011;5580;50.106;8.702;2024-02-26T05:08:35;9.70;;;4.90;;
11054;SDS011;5580;50.106;8.702;2024-02-26T05:11:03;7.13;;;5.00;;
11054;SDS011;5580;50.106;8.702;2024-02-26T05:13:29;11.20;;;5.53;;
11054;SDS011;5580;50.106;8.702;2024-02-26T05:15:55;10.33;;;5.00;;
11054;SDS011;5580;50.106;8.702;2024-02-26T05:18:24;9.77;;;5.30;;
11054;SDS011;5580;50.106;8.702;2024-02-26T05:20:50;10.43;;;5.40;;
11054;SDS011;5580;50.106;8.702;2024-02-26T05:23:15;9.10;;;5.13;;
11054;SDS011;5580;50.106;8.702;2024-02-26T05:25:41;10.00;;;5.60;;
11054;SDS011;5580;50.106;8.702;2024-02-26T05:28:06;9.17;;;5.17;;
11054;SDS011;5580;50.106;8.702;2024-02-26T05:30:32;10.43;;;5.50;;
11054;SDS011;5580;50.106;8.702;2024-02-26T05:32:58;11.77;;;5.87;;
11054;SDS011;5580;50.106;8.702;2024-02-26T05:35:24;11.10;;;5.60;;
11054;SDS011;5580;50.106;8.702;2024-02-26T05:37:50;10.27;;;5.90;;
11054;SDS011;5580;50.106;8.702;2024-02-26T05:40:16;10.70;;;5.67;;
11054;SDS011;5580;50.106;8.702;2024-02-26T05:42:42;10.53;;;5.47;;
11054;SDS011;5580;50.106;8.702;2024-02-26T05:45:09;8.90;;;5.53;;
11054;SDS011;5580;50.106;8.702;2024-02-26T05:47:35;11.67;;;5.87;;
11054;SDS011;5580;50.106;8.702;2024-02-26T05:50:01;8.77;;;5.50;;
11054;SDS011;5580;50.106;8.702;2024-02-26T05:52:27;9.07;;;5.50;;
11054;SDS011;5580;50.106;8.702;2024-02-26T05:54:54;9.13;;;5.40;;
11054;SDS011;5580;50.106;8.702;2024-02-26T05:57:20;9.43;;;5.67;;
11054;SDS011;5580;50.106;8.702;2024-02-26T05:59:45;10.93;;;5.57;;
11054;SDS011;5580;50.106;8.702;2024-02-26T06:02:11;11.43;;;5.87;;
11054;SDS011;5580;50.106;8.702;2024-02-26T06:04:36;8.97;;;5.60;;
11054;SDS011;5580;50.106;8.702;2024-02-26T06:07:02;8.93;;;5.37;;
11054;SDS011;5580;50.106;8.702;2024-02-26T06:09:27;9.10;;;5.33;;
11054;SDS011;5580;50.106;8.702;2024-02-26T06:11:53;11.33;;;5.80;;
11054;SDS011;5580;50.106;8.702;2024-02-26T06:14:19;9.77;;;5.70;;
11054;SDS011;5580;50.106;8.702;2024-02-26T06:16:45;9.30;;;6.10;;
11054;SDS011;5580;50.106;8.702;2024-02-26T06:19:11;11.30;;;5.97;;
11054;SDS011;5580;50.106;8.702;2024-02-26T06:21:36;11.03;;;6.00;;
11054;SDS011;5580;50.106;8.702;2024-02-26T06:24:02;9.97;;;5.57;;
11054;SDS011;5580;50.106;8.702;2024-02-26T06:26:28;10.03;;;5.60;;
11054;SDS011;5580;50.106;8.702;2024-02-26T06:28:54;11.47;;;5.83;;
11054;SDS011;5580;50.106;8.702;2024-02-26T06:31:21;10.83;;;5.33;;
11054;SDS011;5580;50.106;8.702;2024-02-26T06:33:48;10.87;;;5.80;;
11054;SDS011;5580;50.106;8.702;2024-02-26T06:36:14;9.80;;;5.63;;
11054;SDS011;5580;50.106;8.702;2024-02-26T06:38:40;12.93;;;6.27;;
11054;SDS011;5580;50.106;8.702;2024-02-26T06:41:06;12.87;;;5.97;;
11054;SDS011;5580;50.106;8.702;2024-02-26T06:43:31;11.47;;;5.80;;
11054;SDS011;5580;50.106;8.702;2024-02-26T06:45:57;12.27;;;6.40;;
11054;SDS011;5580;50.106;8.702;2024-02-26T06:48:24;12.97;;;6.00;;
11054;SDS011;5580;50.106;8.702;2024-02-26T06:50:50;8.87;;;5.70;;
11054;SDS011;5580;50.106;8.702;2024-02-26T06:53:15;15.23;;;6.17;;
11054;SDS011;5580;50.106;8.702;2024-02-26T06:55:41;14.87;;;6.53;;
11054;SDS011;5580;50.106;8.702;2024-02-26T06:58:07;12.57;;;6.50;;
11054;SDS011;5580;50.106;8.702;2024-02-26T07:00:33;12.07;;;6.23;;
11054;SDS011;5580;50.106;8.702;2024-02-26T07:02:59;14.40;;;6.73;;
11054;SDS011;5580;50.106;8.702;2024-02-26T07:05:24;13.97;;;6.83;;
11054;SDS011;5580;50.106;8.702;2024-02-26T07:07:50;11.97;;;6.30;;
11054;SDS011;5580;50.106;8.702;2024-02-26T07:10:16;10.80;;;6.50;;
11054;SDS011;5580;50.106;8.702;2024-02-26T07:12:42;13.57;;;6.77;;
11054;SDS011;5580;50.106;8.702;2024-02-26T07:15:07;10.30;;;5.90;;
11054;SDS011;5580;50.106;8.702;2024-02-26T07:17:34;13.63;;;6.43;;
11054;SDS011;5580;50.106;8.702;2024-02-26T07:19:59;11.83;;;6.23;;
11054;SDS011;5580;50.106;8.702;2024-02-26T07:22:25;11.07;;;6.07;;
11054;SDS011;5580;50.106;8.702;2024-02-26T07:24:50;10.40;;;5.97;;
11054;SDS011;5580;50.106;8.702;2024-02-26T07:27:17;12.10;;;6.27;;
11054;SDS011;5580;50.106;8.702;2024-02-26T07:29:43;15.57;;;6.20;;
11054;SDS011;5580;50.106;8.702;2024-02-26T07:32:09;11.17;;;6.07;;
11054;SDS011;5580;50.106;8.702;2024-02-26T07:34:35;11.10;;;6.63;;
11054;SDS011;5580;50.106;8.702;2024-02-26T07:37:04;11.97;;;6.77;;
11054;SDS011;5580;50.106;8.702;2024-02-26T07:39:29;11.13;;;5.87;;
11054;SDS011;5580;50.106;8.702;2024-02-26T07:41:55;10.97;;;6.40;;
11054;SDS011;5580;50.106;8.702;2024-02-26T07:44:20;13.77;;;6.27;;
11054;SDS011;5580;50.106;8.702;2024-02-26T07:46:46;11.87;;;6.30;;
11054;SDS011;5580;50.106;8.702;2024-02-26T07:49:12;11.07;;;5.93;;
11054;SDS011;5580;50.106;8.702;2024-02-26T07:51:37;14.10;;;6.60;;
11054;SDS011;5580;50.106;8.702;2024-02-26T07:54:03;10.27;;;5.90;;
11054;SDS011;5580;50.106;8.702;2024-02-26T07:56:28;13.07;;;6.40;;
11054;SDS011;5580;50.106;8.702;2024-02-26T07:58:54;10.93;;;6.27;;
11054;SDS011;5580;50.106;8.702;2024-02-26T08:01:19;12.47;;;6.80;;
11054;SDS011;5580;50.106;8.702;2024-02-26T08:03:45;12.00;;;6.80;;
11054;SDS011;5580;50.106;8.702;2024-02-26T08:06:11;12.97;;;6.23;;
11054;SDS011;5580;50.106;8.702;2024-02-26T08:08:36;13.10;;;6.23;;
11054;SDS011;5580;50.106;8.702;2024-02-26T08:11:03;11.03;;;6.20;;
11054;SDS011;5580;50.106;8.702;2024-02-26T08:13:28;12.97;;;6.67;;
11054;SDS011;5580;50.106;8.702;2024-02-26T08:15:54;14.53;;;6.63;;
11054;SDS011;5580;50.106;8.702;2024-02-26T08:18:20;12.77;;;6.27;;
11054;SDS011;5580;50.106;8.702;2024-02-26T08:20:45;10.50;;;6.47;;
11054;SDS011;5580;50.106;8.702;2024-02-26T08:23:13;11.87;;;6.40;;
11054;SDS011;5580;50.106;8.702;2024-02-26T08:25:38;10.27;;;6.40;;
11054;SDS011;5580;50.106;8.702;2024-02-26T08:28:04;11.97;;;6.40;;
11054;SDS011;5580;50.106;8.702;2024-02-26T08:30:30;13.33;;;6.77;;
11054;SDS011;5580;50.106;8.702;2024-02-26T08:32:56;11.40;;;6.60;;
11054;SDS011;5580;50.106;8.702;2024-02-26T08:35:21;11.47;;;6.50;;
11054;SDS011;5580;50.106;8.702;2024-02-26T08:37:47;14.57;;;7.50;;
11054;SDS011;5580;50.106;8.702;2024-02-26T08:40:13;12.80;;;6.77;;
11054;SDS011;5580;50.106;8.702;2024-02-26T08:42:39;15.23;;;7.87;;
11054;SDS011;5580;50.106;8.702;2024-02-26T08:45:05;13.40;;;7.00;;
11054;SDS011;5580;50.106;8.702;2024-02-26T08:47:32;12.50;;;7.20;;
11054;SDS011;5580;50.106;8.702;2024-02-26T08:49:58;13.67;;;7.20;;
11054;SDS011;5580;50.106;8.702;2024-02-26T08:52:23;12.87;;;7.30;;
11054;SDS011;5580;50.106;8.702;2024-02-26T08:54:49;15.50;;;7.07;;
11054;SDS011;5580;50.106;8.702;2024-02-26T08:57:15;14.73;;;7.93;;
11054;SDS011;5580;50.106;8.702;2024-02-26T08:59:41;13.70;;;7.80;;
11054;SDS011;5580;50.106;8.702;2024-02-26T09:02:07;15.40;;;7.80;;
11054;SDS011;5580;50.106;8.702;2024-02-26T09:04:34;13.00;;;7.47;;
11054;SDS011;5580;50.106;8.702;2024-02-26T09:07:00;15.77;;;7.63;;
11054;SDS011;5580;50.106;8.702;2024-02-26T09:09:27;13.53;;;7.80;;
11054;SDS011;5580;50.106;8.702;2024-02-26T09:11:52;13.93;;;7.10;;
11054;SDS011;5580;50.106;8.702;2024-02-26T09:14:20;14.00;;;7.60;;
11054;SDS011;5580;50.106;8.702;2024-02-26T09:16:46;12.80;;;7.17;;
11054;SDS011;5580;50.106;8.702;2024-02-26T09:19:13;14.53;;;7.50;;
11054;SDS011;5580;50.106;8.702;2024-02-26T09:21:46;12.93;;;7.70;;
11054;SDS011;5580;50.106;8.702;2024-02-26T09:24:12;14.93;;;7.57;;
11054;SDS011;5580;50.106;8.702;2024-02-26T09:26:38;14.27;;;8.30;;
11054;SDS011;5580;50.106;8.702;2024-02-26T09:29:03;13.40;;;7.57;;
11054;SDS011;5580;50.106;8.702;2024-02-26T09:31:30;14.20;;;7.60;;
11054;SDS011;5580;50.106;8.702;2024-02-26T09:33:55;13.23;;;7.60;;
11054;SDS011;5580;50.106;8.702;2024-02-26T09:36:21;13.70;;;7.63;;
11054;SDS011;5580;50.106;8.702;2024-02-26T09:38:47;14.87;;;7.53;;
11054;SDS011;5580;50.106;8.702;2024-02-26T09:41:16;15.23;;;8.10;;
11054;SDS011;5580;50.106;8.702;2024-02-26T09:43:43;14.27;;;8.00;;
11054;SDS011;5580;50.106;8.702;2024-02-26T09:46:11;13.37;;;7.90;;
11054;SDS011;5580;50.106;8.702;2024-02-26T09:48:37;12.63;;;7.83;;
11054;SDS011;5580;50.106;8.702;2024-02-26T09:51:03;13.70;;;7.63;;
11054;SDS011;5580;50.106;8.702;2024-02-26T09:53:30;13.23;;;7.20;;
11054;SDS011;5580;50.106;8.702;2024-02-26T09:55:58;13.73;;;7.30;;
11054;SDS011;5580;50.106;8.702;2024-02-26T09:58:24;13.80;;;7.60;;
11054;SDS011;5580;50.106;8.702;2024-02-26T10:00:54;12.53;;;7.07;;
11054;SDS011;5580;50.106;8.702;2024-02-26T10:03:25;13.77;;;7.43;;
11054;SDS011;5580;50.106;8.702;2024-02-26T10:06:01;13.27;;;7.77;;
11054;SDS011;5580;50.106;8.702;2024-02-26T10:08:29;13.37;;;7.43;;
11054;SDS011;5580;50.106;8.702;2024-02-26T10:10:55;13.93;;;8.00;;
11054;SDS011;5580;50.106;8.702;2024-02-26T10:13:21;13.73;;;7.83;;
11054;SDS011;5580;50.106;8.702;2024-02-26T10:15:48;13.73;;;7.73;;
11054;SDS011;5580;50.106;8.702;2024-02-26T10:18:14;13.57;;;7.60;;
11054;SDS011;5580;50.106;8.702;2024-02-26T10:20:40;12.97;;;7.70;;
11054;SDS011;5580;50.106;8.702;2024-02-26T10:23:06;15.27;;;7.97;;
11054;SDS011;5580;50.106;8.702;2024-02-26T10:25:31;12.97;;;8.00;;
11054;SDS011;5580;50.106;8.702;2024-02-26T10:28:00;14.10;;;8.33;;
11054;SDS011;5580;50.106;8.702;2024-02-26T10:30:27;14.40;;;8.40;;
11054;SDS011;5580;50.106;8.702;2024-02-26T10:32:54;13.60;;;7.63;;
11054;SDS011;5580;50.106;8.702;2024-02-26T10:35:19;14.60;;;8.00;;
11054;SDS011;5580;50.106;8.702;2024-02-26T10:37:46;13.97;;;8.03;;
11054;SDS011;5580;50.106;8.702;2024-02-26T10:40:12;13.90;;;7.47;;
11054;SDS011;5580;50.106;8.702;2024-02-26T10:42:39;13.50;;;8.10;;
11054;SDS011;5580;50.106;8.702;2024-02-26T10:45:06;14.13;;;8.30;;
11054;SDS011;5580;50.106;8.702;2024-02-26T10:47:34;15.03;;;7.57;;
11054;SDS011;5580;50.106;8.702;2024-02-26T10:50:03;13.43;;;8.00;;
11054;SDS011;5580;50.106;8.702;2024-02-26T10:52:34;17.13;;;8.27;;
11054;SDS011;5580;50.106;8.702;2024-02-26T10:55:02;13.23;;;7.97;;
11054;SDS011;5580;50.106;8.702;2024-02-26T10:59:59;13.67;;;7.87;;
11054;SDS011;5580;50.106;8.702;2024-02-26T11:02:29;13.67;;;7.87;;
11054;SDS011;5580;50.106;8.702;2024-02-26T11:04:57;14.30;;;8.13;;
11054;SDS011;5580;50.106;8.702;2024-02-26T11:07:24;15.47;;;8.33;;
11054;SDS011;5580;50.106;8.702;2024-02-26T11:09:51;14.87;;;8.00;;
11054;SDS011;5580;50.106;8.702;2024-02-26T11:12:18;13.97;;;8.73;;
11054;SDS011;5580;50.106;8.702;2024-02-26T11:14:46;13.30;;;7.70;;
11054;SDS011;5580;50.106;8.702;2024-02-26T11:17:12;13.43;;;8.57;;
11054;SDS011;5580;50.106;8.702;2024-02-26T11:19:41;15.27;;;8.83;;
11054;SDS011;5580;50.106;8.702;2024-02-26T11:22:09;16.53;;;8.60;;
11054;SDS011;5580;50.106;8.702;2024-02-26T11:24:34;13.00;;;7.57;;
11054;SDS011;5580;50.106;8.702;2024-02-26T11:27:06;16.10;;;7.90;;
11054;SDS011;5580;50.106;8.702;2024-02-26T11:29:34;13.70;;;8.33;;
11054;SDS011;5580;50.106;8.702;2024-02-26T11:32:05;13.80;;;8.03;;
11054;SDS011;5580;50.106;8.702;2024-02-26T11:34:31;14.47;;;8.60;;
11054;SDS011;5580;50.106;8.702;2024-02-26T11:36:57;15.33;;;8.40;;
11054;SDS011;5580;50.106;8.702;2024-02-26T11:39:33;14.90;;;8.53;;
11054;SDS011;5580;50.106;8.702;2024-02-26T11:42:09;14.27;;;8.00;;
11054;SDS011;5580;50.106;8.702;2024-02-26T11:44:38;14.00;;;8.33;;
11054;SDS011;5580;50.106;8.702;2024-02-26T11:47:13;15.87;;;9.37;;
11054;SDS011;5580;50.106;8.702;2024-02-26T11:49:43;12.87;;;7.83;;
11054;SDS011;5580;50.106;8.702;2024-02-26T11:52:08;13.93;;;8.13;;
11054;SDS011;5580;50.106;8.702;2024-02-26T11:54:51;15.57;;;8.20;;
11054;SDS011;5580;50.106;8.702;2024-02-26T12:00:15;15.20;;;8.43;;
11054;SDS011;5580;50.106;8.702;2024-02-26T12:02:51;14.03;;;8.17;;
11054;SDS011;5580;50.106;8.702;2024-02-26T12:05:23;15.20;;;8.77;;
11054;SDS011;5580;50.106;8.702;2024-02-26T12:07:52;14.77;;;8.23;;
11054;SDS011;5580;50.106;8.702;2024-02-26T12:10:26;14.20;;;8.47;;
11054;SDS011;5580;50.106;8.702;2024-02-26T12:13:00;11.73;;;7.33;;
11054;SDS011;5580;50.106;8.702;2024-02-26T12:15:36;14.57;;;7.80;;
11054;SDS011;5580;50.106;8.702;2024-02-26T12:18:07;13.53;;;7.30;;
11054;SDS011;5580;50.106;8.702;2024-02-26T12:20:34;11.93;;;7.07;;
11054;SDS011;5580;50.106;8.702;2024-02-26T12:23:01;13.30;;;7.50;;
11054;SDS011;5580;50.106;8.702;2024-02-26T12:25:29;13.80;;;7.37;;
11054;SDS011;5580;50.106;8.702;2024-02-26T12:27:56;11.73;;;6.83;;
11054;SDS011;5580;50.106;8.702;2024-02-26T12:30:22;12.60;;;7.47;;
11054;SDS011;5580;50.106;8.702;2024-02-26T12:32:49;11.73;;;7.40;;
11054;SDS011;5580;50.106;8.702;2024-02-26T12:35:16;14.13;;;6.90;;
11054;SDS011;5580;50.106;8.702;2024-02-26T12:37:45;15.70;;;7.73;;
11054;SDS011;5580;50.106;8.702;2024-02-26T12:40:12;16.33;;;7.53;;
11054;SDS011;5580;50.106;8.702;2024-02-26T12:42:38;12.53;;;7.17;;
11054;SDS011;5580;50.106;8.702;2024-02-26T12:45:05;12.57;;;7.40;;
11054;SDS011;5580;50.106;8.702;2024-02-26T12:47:38;12.20;;;7.27;;
11054;SDS011;5580;50.106;8.702;2024-02-26T12:50:05;12.37;;;6.93;;
11054;SDS011;5580;50.106;8.702;2024-02-26T12:52:32;12.40;;;7.20;;
11054;SDS011;5580;50.106;8.702;2024-02-26T12:54:59;11.80;;;6.87;;
11054;SDS011;5580;50.106;8.702;2024-02-26T12:57:27;14.27;;;7.27;;
11054;SDS011;5580;50.106;8.702;2024-02-26T12:59:55;12.07;;;7.00;;
11054;SDS011;5580;50.106;8.702;2024-02-26T13:02:21;15.83;;;7.37;;
11054;SDS011;5580;50.106;8.702;2024-02-26T13:04:47;14.60;;;7.60;;
11054;SDS011;5580;50.106;8.702;2024-02-26T13:07:13;13.07;;;7.50;;
11054;SDS011;5580;50.106;8.702;2024-02-26T13:09:39;11.10;;;6.90;;
11054;SDS011;5580;50.106;8.702;2024-02-26T13:12:05;13.37;;;7.20;;
11054;SDS011;5580;50.106;8.702;2024-02-26T13:14:32;16.43;;;7.30;;
11054;SDS011;5580;50.106;8.702;2024-02-26T13:16:59;13.80;;;6.73;;
11054;SDS011;5580;50.106;8.702;2024-02-26T13:19:25;11.73;;;7.30;;
11054;SDS011;5580;50.106;8.702;2024-02-26T13:21:52;14.60;;;8.17;;
11054;SDS011;5580;50.106;8.702;2024-02-26T13:24:19;14.20;;;7.17;;
11054;SDS011;5580;50.106;8.702;2024-02-26T13:26:45;14.07;;;6.70;;
11054;SDS011;5580;50.106;8.702;2024-02-26T13:29:18;13.87;;;7.30;;
11054;SDS011;5580;50.106;8.702;2024-02-26T13:31:44;11.30;;;6.93;;
11054;SDS011;5580;50.106;8.702;2024-02-26T13:34:09;11.23;;;6.73;;
11054;SDS011;5580;50.106;8.702;2024-02-26T13:36:35;12.90;;;6.43;;
11054;SDS011;5580;50.106;8.702;2024-02-26T13:39:01;16.67;;;7.93;;
11054;SDS011;5580;50.106;8.702;2024-02-26T13:41:29;13.70;;;7.50;;
11054;SDS011;5580;50.106;8.702;2024-02-26T13:43:55;14.10;;;6.80;;
11054;SDS011;5580;50.106;8.702;2024-02-26T13:46:22;11.37;;;6.57;;
11054;SDS011;5580;50.106;8.702;2024-02-26T13:48:48;11.13;;;6.37;;
11054;SDS011;5580;50.106;8.702;2024-02-26T13:51:14;12.23;;;6.83;;
11054;SDS011;5580;50.106;8.702;2024-02-26T13:53:40;11.67;;;6.80;;
11054;SDS011;5580;50.106;8.702;2024-02-26T13:56:05;9.87;;;6.00;;
11054;SDS011;5580;50.106;8.702;2024-02-26T13:58:32;10.93;;;6.43;;
11054;SDS011;5580;50.106;8.702;2024-02-26T14:00:57;10.63;;;6.40;;
11054;SDS011;5580;50.106;8.702;2024-02-26T14:03:24;10.60;;;6.73;;
11054;SDS011;5580;50.106;8.702;2024-02-26T14:05:50;12.47;;;6.87;;
11054;SDS011;5580;50.106;8.702;2024-02-26T14:08:16;10.80;;;6.40;;
11054;SDS011;5580;50.106;8.702;2024-02-26T14:10:42;11.13;;;6.53;;
11054;SDS011;5580;50.106;8.702;2024-02-26T14:13:07;10.97;;;6.37;;
11054;SDS011;5580;50.106;8.702;2024-02-26T14:15:34;10.30;;;6.30;;
11054;SDS011;5580;50.106;8.702;2024-02-26T14:18:00;11.13;;;6.40;;
11054;SDS011;5580;50.106;8.702;2024-02-26T14:20:28;10.03;;;6.20;;
11054;SDS011;5580;50.106;8.702;2024-02-26T14:22:54;11.17;;;6.40;;
11054;SDS011;5580;50.106;8.702;2024-02-26T14:25:19;11.07;;;6.60;;
11054;SDS011;5580;50.106;8.702;2024-02-26T14:27:46;10.10;;;5.97;;
11054;SDS011;5580;50.106;8.702;2024-02-26T14:30:12;10.83;;;5.97;;
11054;SDS011;5580;50.106;8.702;2024-02-26T14:32:38;13.03;;;6.10;;
11054;SDS011;5580;50.106;8.702;2024-02-26T14:35:05;9.37;;;5.77;;
11054;SDS011;5580;50.106;8.702;2024-02-26T14:37:34;11.80;;;6.57;;
11054;SDS011;5580;50.106;8.702;2024-02-26T14:40:01;11.03;;;6.33;;
11054;SDS011;5580;50.106;8.702;2024-02-26T14:42:30;11.80;;;6.20;;
11054;SDS011;5580;50.106;8.702;2024-02-26T14:44:56;11.70;;;7.10;;
11054;SDS011;5580;50.106;8.702;2024-02-26T14:47:21;12.47;;;6.73;;
11054;SDS011;5580;50.106;8.702;2024-02-26T14:49:47;13.13;;;6.17;;
11054;SDS011;5580;50.106;8.702;2024-02-26T14:52:16;10.70;;;6.07;;
11054;SDS011;5580;50.106;8.702;2024-02-26T14:54:42;12.23;;;6.57;;